Terminal Aerodrome Forecast
Issued by NWS

Home | Current Version | Previous Version | Text Only | Print | Product List | Glossary On
Versions: 1 2 3 4 5 6 7 8 9 10 11 12 13 14 15 16 17 18 19 20 21 22 23 24 25 26 27 28 29 30 31 32 33 34
000
FTUS43 KFGF 232339
TAFDVL
TAF
KDVL 232339Z 2400/2424 VRB06KT P6SM OVC080
     FM240200 24007KT P6SM BKN100
     FM240800 01009KT P6SM BKN035
     FM241000 01005KT 4SM BR SCT035
     FM242100 03008KT P6SM SCT100=

USA.gov is the U.S. government's official web portal to all federal, state and local government web resources and services.